createdAt,value
2022-09-23T00:00:10.273Z,70.30
2022-09-23T00:02:37.444Z,70.40
2022-09-23T00:05:04.853Z,70.40
2022-09-23T00:07:31.745Z,70.30
2022-09-23T00:09:59.330Z,70.40
2022-09-23T00:12:26.159Z,70.30
2022-09-23T00:14:53.312Z,70.10
2022-09-23T00:17:20.269Z,69.80
2022-09-23T00:19:48.914Z,70.00
2022-09-23T00:22:16.240Z,70.50
2022-09-23T00:24:43.084Z,70.50
2022-09-23T00:27:10.234Z,70.50
2022-09-23T00:29:37.165Z,70.60
2022-09-23T00:32:04.673Z,70.70
2022-09-23T00:34:31.578Z,70.40
2022-09-23T00:36:58.512Z,70.40
2022-09-23T00:39:26.499Z,70.10
2022-09-23T00:41:53.417Z,69.80
2022-09-23T00:44:40.662Z,69.80
2022-09-23T00:47:26.466Z,69.70
2022-09-23T00:49:56.308Z,69.40
2022-09-23T00:52:23.956Z,69.10
2022-09-23T00:54:51.694Z,68.80
2022-09-23T00:57:20.106Z,68.50
2022-09-23T00:59:46.954Z,68.30
2022-09-23T01:02:14.426Z,68.50
2022-09-23T01:04:41.491Z,68.70
2022-09-23T01:07:08.460Z,68.50
2022-09-23T01:09:35.339Z,68.80
2022-09-23T01:12:02.134Z,68.80
2022-09-23T01:14:29.038Z,69.00
2022-09-23T01:16:59.747Z,68.90
2022-09-23T01:21:12.659Z,68.80
2022-09-23T01:23:53.026Z,69.10
2022-09-23T01:26:40.372Z,68.90
2022-09-23T01:29:14.661Z,69.10
2022-09-23T01:31:47.383Z,69.50
2022-09-23T01:34:34.486Z,69.30
2022-09-23T01:37:07.782Z,69.40
2022-09-23T01:39:35.256Z,69.30
2022-09-23T01:42:08.313Z,69.80
2022-09-23T01:44:38.798Z,69.50
2022-09-23T01:47:11.237Z,70.00
2022-09-23T01:49:41.644Z,69.90
2022-09-23T01:52:10.495Z,69.80
2022-09-23T01:54:38.953Z,70.10
2022-09-23T01:57:32.083Z,70.20
2022-09-23T02:00:15.628Z,70.30
2022-09-23T02:02:50.351Z,71.10
2022-09-23T02:05:21.184Z,71.20
2022-09-23T02:07:48.522Z,71.00
2022-09-23T02:10:18.408Z,71.00
2022-09-23T02:12:47.208Z,70.70
2022-09-23T02:15:23.093Z,70.60
2022-09-23T02:17:58.978Z,70.40
2022-09-23T02:20:28.090Z,70.50
2022-09-23T02:22:57.038Z,70.70
2022-09-23T02:25:26.119Z,70.80
2022-09-23T02:27:57.920Z,70.80
2022-09-23T02:30:27.385Z,71.00
2022-09-23T02:33:00.773Z,71.00
2022-09-23T02:35:33.528Z,71.10
2022-09-23T02:38:18.826Z,71.00
2022-09-23T02:40:52.461Z,71.60
2022-09-23T02:43:39.304Z,71.30
2022-09-23T02:46:06.635Z,71.10
2022-09-23T02:48:34.717Z,71.10
2022-09-23T02:51:04.074Z,70.80
2022-09-23T02:53:33.609Z,71.00
2022-09-23T02:56:01.138Z,71.20
2022-09-23T02:58:28.826Z,71.30
2022-09-23T03:01:11.142Z,71.30
2022-09-23T03:03:38.166Z,71.10
2022-09-23T03:06:08.541Z,71.30
2022-09-23T03:08:39.159Z,71.80
2022-09-23T03:11:08.103Z,71.70
2022-09-23T03:13:51.298Z,71.50
2022-09-23T03:16:21.361Z,71.10
2022-09-23T03:18:50.595Z,71.20
2022-09-23T03:21:38.581Z,71.10
2022-09-23T03:24:05.977Z,71.50
2022-09-23T03:26:33.910Z,71.30
2022-09-23T03:29:04.585Z,71.60
2022-09-23T03:31:32.712Z,71.60
2022-09-23T03:34:00.087Z,71.60
2022-09-23T03:36:51.912Z,71.80
2022-09-23T03:39:21.810Z,71.50
2022-09-23T03:41:51.026Z,71.30
2022-09-23T03:44:19.780Z,71.20
2022-09-23T03:46:50.005Z,70.80
2022-09-23T03:49:17.935Z,70.80
2022-09-23T03:51:44.989Z,71.00
2022-09-23T03:54:12.223Z,71.10
2022-09-23T03:56:39.053Z,71.20
2022-09-23T03:59:06.295Z,71.20
2022-09-23T04:01:33.367Z,71.10
2022-09-23T04:04:00.300Z,71.10
2022-09-23T04:06:28.197Z,71.20
2022-09-23T04:08:55.206Z,71.40
2022-09-23T04:11:22.375Z,71.40
2022-09-23T04:13:49.259Z,71.80
2022-09-23T04:16:16.422Z,71.90
2022-09-23T04:18:43.398Z,71.60
2022-09-23T04:21:10.530Z,71.60
2022-09-23T04:23:37.622Z,71.50
2022-09-23T04:26:06.790Z,71.10
2022-09-23T04:28:34.091Z,71.20
2022-09-23T04:31:04.910Z,71.40
2022-09-23T04:33:31.955Z,71.30
2022-09-23T04:35:58.840Z,71.30
2022-09-23T04:38:25.865Z,71.20
2022-09-23T04:40:52.943Z,71.30
2022-09-23T04:43:23.385Z,71.10
2022-09-23T04:46:00.231Z,71.10
2022-09-23T04:48:27.425Z,70.90
2022-09-23T04:50:54.565Z,70.80
2022-09-23T04:53:22.710Z,70.90
2022-09-23T04:55:52.544Z,70.70
2022-09-23T04:58:19.630Z,70.60
2022-09-23T05:00:46.761Z,70.40
2022-09-23T05:03:13.969Z,70.10
2022-09-23T05:05:41.485Z,70.10
2022-09-23T05:08:08.703Z,70.10
2022-09-23T05:10:35.568Z,70.30
2022-09-23T05:13:02.487Z,70.00
2022-09-23T05:15:29.518Z,70.20
2022-09-23T05:17:59.551Z,70.60
2022-09-23T05:20:26.499Z,70.50
2022-09-23T05:22:55.743Z,70.20
2022-09-23T05:25:24.132Z,70.10
2022-09-23T05:27:51.023Z,70.10
2022-09-23T05:30:17.871Z,70.30
2022-09-23T05:32:50.346Z,70.40
2022-09-23T05:35:17.329Z,70.10
2022-09-23T05:37:44.223Z,70.10
2022-09-23T05:40:11.108Z,69.80
2022-09-23T05:42:38.160Z,69.50
2022-09-23T05:45:05.395Z,69.30
2022-09-23T05:47:32.248Z,69.10
2022-09-23T05:50:00.781Z,69.40
2022-09-23T05:52:28.074Z,69.40
2022-09-23T05:54:57.028Z,69.00
2022-09-23T05:57:25.948Z,68.70
2022-09-23T05:59:54.380Z,68.10
2022-09-23T06:02:21.597Z,67.60
2022-09-23T06:04:48.558Z,67.10
2022-09-23T06:07:15.818Z,66.50
2022-09-23T06:09:43.382Z,66.40
2022-09-23T06:12:10.378Z,67.00
2022-09-23T06:14:37.284Z,65.90
2022-09-23T06:17:05.774Z,65.50
2022-09-23T06:19:32.629Z,65.30
2022-09-23T06:21:59.504Z,64.90
2022-09-23T06:24:31.104Z,64.80
2022-09-23T06:26:58.685Z,64.30
2022-09-23T06:29:25.806Z,63.80
2022-09-23T06:31:52.779Z,63.80
2022-09-23T06:34:20.377Z,63.60
2022-09-23T06:36:47.954Z,63.10
2022-09-23T06:39:15.082Z,62.80
2022-09-23T06:41:42.101Z,62.60
2022-09-23T06:44:09.358Z,62.60
2022-09-23T06:46:37.139Z,62.80
2022-09-23T06:49:04.165Z,63.00
2022-09-23T06:51:32.030Z,63.40
2022-09-23T06:53:59.003Z,62.40
2022-09-23T06:56:26.208Z,61.80
2022-09-23T06:58:53.426Z,59.60
2022-09-23T07:01:21.088Z,57.50
2022-09-23T07:03:48.674Z,55.00
2022-09-23T07:06:16.054Z,53.00
2022-09-23T07:08:47.256Z,50.80
2022-09-23T07:11:14.444Z,47.90
2022-09-23T07:13:41.645Z,46.50
2022-09-23T07:16:08.706Z,44.70
2022-09-23T07:18:37.552Z,43.30
2022-09-23T07:21:05.707Z,42.00
2022-09-23T07:23:33.665Z,40.40
2022-09-23T07:26:00.765Z,39.10
2022-09-23T07:28:29.450Z,38.60
2022-09-23T07:31:00.232Z,37.80
2022-09-23T07:33:33.055Z,37.20
2022-09-23T07:36:04.128Z,36.00
2022-09-23T07:38:31.615Z,35.20
2022-09-23T07:41:02.760Z,33.90
2022-09-23T07:43:32.640Z,33.80
2022-09-23T07:46:00.661Z,34.50
2022-09-23T07:48:33.879Z,33.60
2022-09-23T07:51:02.305Z,32.50
2022-09-23T07:53:29.843Z,32.50
2022-09-23T07:56:06.778Z,31.80
2022-09-23T07:58:44.355Z,31.40
2022-09-23T08:01:12.373Z,31.00
2022-09-23T08:03:43.591Z,30.90
2022-09-23T08:06:12.121Z,30.50
2022-09-23T08:08:48.897Z,30.70
2022-09-23T08:11:28.112Z,30.40
2022-09-23T08:13:55.061Z,29.90
2022-09-23T08:16:22.273Z,29.50
2022-09-23T08:18:55.143Z,29.10
2022-09-23T08:21:22.781Z,29.60
2022-09-23T08:24:03.225Z,29.60
2022-09-23T08:26:31.097Z,29.70
2022-09-23T08:29:03.980Z,29.80
2022-09-23T08:31:31.106Z,30.00
2022-09-23T08:34:10.759Z,29.70
2022-09-23T08:36:38.080Z,29.50
2022-09-23T08:39:04.962Z,28.80
2022-09-23T08:41:58.557Z,28.80
2022-09-23T08:44:26.808Z,28.60
2022-09-23T08:46:58.671Z,28.00
2022-09-23T08:49:31.312Z,28.20
2022-09-23T08:51:58.808Z,28.00
2022-09-23T08:54:26.662Z,27.70
2022-09-23T08:56:59.947Z,27.90
2022-09-23T08:59:32.312Z,28.00
2022-09-23T09:02:05.677Z,27.60
2022-09-23T09:04:35.715Z,27.10
2022-09-23T09:10:11.454Z,26.60
2022-09-23T09:12:50.361Z,26.50
2022-09-23T09:15:27.605Z,26.60
2022-09-23T09:18:32.844Z,26.30
2022-09-23T09:21:01.535Z,26.10
2022-09-23T09:23:28.468Z,25.70
2022-09-23T09:25:57.202Z,25.40
2022-09-23T09:28:25.049Z,25.20
2022-09-23T09:30:54.036Z,25.10
2022-09-23T09:33:21.765Z,25.40
2022-09-23T09:35:54.838Z,24.70
2022-09-23T09:38:22.166Z,24.70
2022-09-23T09:40:49.363Z,24.30
2022-09-23T09:43:23.746Z,25.10
2022-09-23T09:46:16.481Z,24.50
2022-09-23T09:49:03.134Z,24.70
2022-09-23T09:52:08.986Z,24.60
2022-09-23T09:54:36.010Z,24.40
2022-09-23T09:57:04.410Z,23.40
2022-09-23T10:00:25.267Z,23.70
2022-09-23T10:02:59.788Z,23.50
2022-09-23T10:05:49.941Z,23.50
2022-09-23T10:08:26.790Z,23.70
2022-09-23T10:11:04.092Z,23.60
2022-09-23T10:13:40.330Z,23.50
2022-09-23T10:16:12.726Z,23.50
2022-09-23T10:18:48.421Z,23.60
2022-09-23T10:21:18.330Z,23.90
2022-09-23T10:23:45.937Z,23.50
2022-09-23T10:26:12.995Z,23.40
2022-09-23T10:28:40.272Z,23.50
2022-09-23T10:31:25.976Z,23.40
2022-09-23T10:33:57.515Z,23.80
2022-09-23T10:36:26.901Z,23.90
2022-09-23T10:39:35.498Z,23.50
2022-09-23T10:42:44.557Z,23.00
2022-09-23T10:45:48.369Z,22.80
2022-09-23T10:48:36.271Z,22.70
2022-09-23T10:51:16.284Z,22.90
2022-09-23T10:53:58.619Z,22.50
2022-09-23T10:56:28.418Z,22.20
2022-09-23T10:59:04.788Z,22.40
2022-09-23T11:01:31.673Z,21.50
2022-09-23T11:04:17.262Z,21.40
2022-09-23T11:07:10.178Z,21.60
2022-09-23T11:09:42.733Z,21.40
2022-09-23T11:12:19.203Z,21.70
2022-09-23T11:15:00.884Z,21.70
2022-09-23T11:18:07.858Z,21.30
2022-09-23T11:20:46.305Z,21.00
2022-09-23T11:23:39.444Z,20.60
2022-09-23T11:26:32.879Z,20.50
2022-09-23T11:29:18.292Z,20.60
2022-09-23T11:31:59.555Z,20.70
2022-09-23T11:34:26.726Z,20.80
2022-09-23T11:36:56.858Z,21.30
2022-09-23T11:39:37.662Z,21.20
2022-09-23T11:42:06.519Z,21.60
2022-09-23T11:44:35.308Z,22.60
2022-09-23T11:47:03.931Z,22.40
2022-09-23T11:49:31.636Z,23.40
2022-09-23T11:52:12.486Z,23.10
2022-09-23T11:54:42.042Z,23.00
2022-09-23T11:57:10.733Z,22.40
2022-09-23T11:59:40.870Z,22.00
2022-09-23T12:02:30.903Z,22.00
2022-09-23T12:04:58.953Z,22.80
2022-09-23T12:07:29.076Z,24.30
2022-09-23T12:10:01.960Z,25.60
2022-09-23T12:12:49.917Z,26.00
2022-09-23T12:15:26.755Z,26.50
2022-09-23T12:18:29.274Z,27.30
2022-09-23T12:21:03.360Z,27.90
2022-09-23T12:23:42.902Z,28.40
2022-09-23T12:26:16.844Z,28.90
2022-09-23T12:28:47.704Z,29.20
2022-09-23T12:31:18.693Z,29.40
2022-09-23T12:33:52.393Z,29.70
2022-09-23T12:36:27.168Z,29.80
2022-09-23T12:39:02.474Z,30.20
2022-09-23T12:41:29.357Z,30.90
2022-09-23T12:43:58.392Z,30.90
2022-09-23T12:46:26.170Z,31.30
2022-09-23T12:48:59.125Z,31.20
2022-09-23T12:51:32.616Z,31.50
2022-09-23T12:54:05.775Z,31.60
2022-09-23T12:56:38.989Z,31.40
2022-09-23T12:59:18.309Z,31.30
2022-09-23T13:01:45.536Z,31.90
2022-09-23T13:04:50.293Z,31.50
2022-09-23T13:07:18.833Z,31.90
2022-09-23T13:09:50.174Z,31.30
2022-09-23T13:12:29.615Z,31.70
2022-09-23T13:15:00.856Z,30.80
2022-09-23T13:17:36.761Z,29.90
2022-09-23T13:20:03.791Z,29.80
2022-09-23T13:22:44.253Z,30.60
2022-09-23T13:25:16.545Z,30.00
2022-09-23T13:27:43.575Z,29.80
2022-09-23T13:30:25.790Z,29.00
2022-09-23T13:33:06.988Z,27.80
2022-09-23T13:35:41.999Z,26.70
2022-09-23T13:38:12.671Z,25.80
2022-09-23T13:40:41.677Z,25.10
2022-09-23T13:43:14.829Z,24.30
2022-09-23T13:45:44.384Z,24.20
2022-09-23T13:48:12.579Z,24.20
2022-09-23T13:50:41.283Z,24.00
2022-09-23T13:53:09.556Z,23.70
2022-09-23T13:55:40.294Z,23.60
2022-09-23T13:58:24.118Z,23.60
2022-09-23T14:00:51.312Z,23.50
2022-09-23T14:03:19.448Z,24.80
2022-09-23T14:05:49.630Z,25.40
2022-09-23T14:08:20.139Z,25.80
2022-09-23T14:10:55.935Z,25.90
2022-09-23T14:13:28.333Z,26.10
2022-09-23T14:15:59.040Z,25.70
2022-09-23T14:18:33.170Z,25.50
2022-09-23T14:21:01.804Z,25.20
2022-09-23T14:23:28.799Z,25.30
2022-09-23T14:25:55.862Z,24.60
2022-09-23T14:28:23.960Z,25.20
2022-09-23T14:30:51.252Z,26.60
2022-09-23T14:33:23.923Z,27.00
2022-09-23T14:35:52.282Z,27.70
2022-09-23T14:38:45.096Z,27.60
2022-09-23T14:41:35.374Z,28.00
2022-09-23T14:44:02.465Z,28.00
2022-09-23T14:46:35.557Z,28.50
2022-09-23T14:49:11.592Z,29.30
2022-09-23T14:51:46.034Z,30.20
2022-09-23T14:54:22.747Z,30.30
2022-09-23T14:56:49.748Z,30.00
2022-09-23T14:59:27.996Z,29.50
2022-09-23T15:01:54.853Z,29.80
2022-09-23T15:04:21.690Z,30.70
2022-09-23T15:06:58.843Z,30.40
2022-09-23T15:09:26.735Z,30.40
2022-09-23T15:11:56.371Z,31.00
2022-09-23T15:14:37.945Z,31.00
2022-09-23T15:17:07.542Z,31.70
2022-09-23T15:19:35.303Z,31.80
2022-09-23T15:22:02.535Z,32.20
2022-09-23T15:24:36.032Z,33.00
2022-09-23T15:27:03.378Z,32.60
2022-09-23T15:29:33.221Z,33.10
2022-09-23T15:32:00.690Z,33.50
2022-09-23T15:34:27.745Z,32.90
2022-09-23T15:36:54.804Z,33.40
2022-09-23T15:39:35.996Z,33.50
2022-09-23T15:42:03.231Z,34.50
2022-09-23T15:44:40.100Z,34.20
2022-09-23T15:47:11.776Z,34.50
2022-09-23T15:49:41.747Z,34.40
2022-09-23T15:52:09.994Z,34.70
2022-09-23T15:54:38.132Z,35.50
2022-09-23T15:57:05.181Z,35.60
2022-09-23T15:59:32.415Z,35.80
2022-09-23T16:01:59.750Z,37.10
2022-09-23T16:04:28.463Z,37.60
2022-09-23T16:06:55.601Z,37.60
2022-09-23T16:09:23.848Z,38.50
2022-09-23T16:11:52.610Z,39.10
2022-09-23T16:14:19.722Z,39.40
2022-09-23T16:16:48.137Z,39.90
2022-09-23T16:19:16.421Z,40.50
2022-09-23T16:21:45.279Z,41.20
2022-09-23T16:24:16.198Z,41.90
2022-09-23T16:26:44.237Z,42.10
2022-09-23T16:29:11.805Z,42.00
2022-09-23T16:31:38.970Z,42.60
2022-09-23T16:34:06.712Z,43.40
2022-09-23T16:36:41.597Z,43.60
2022-09-23T16:39:11.521Z,44.00
2022-09-23T16:41:38.706Z,44.20
2022-09-23T16:44:06.412Z,44.70
2022-09-23T16:46:33.591Z,45.80
2022-09-23T16:49:00.763Z,46.40
2022-09-23T16:51:29.024Z,47.50
2022-09-23T16:53:56.576Z,47.10
2022-09-23T16:56:28.636Z,46.10
2022-09-23T16:58:56.328Z,47.40
2022-09-23T17:01:42.591Z,48.10
2022-09-23T17:04:10.894Z,48.50
2022-09-23T17:06:52.620Z,48.80
2022-09-23T17:09:20.368Z,47.40
2022-09-23T17:11:49.485Z,48.00
2022-09-23T17:14:16.825Z,48.20
2022-09-23T17:16:44.029Z,49.20
2022-09-23T17:19:11.443Z,49.60
2022-09-23T17:21:38.973Z,50.10
2022-09-23T17:24:06.052Z,49.90
2022-09-23T17:26:34.210Z,50.30
2022-09-23T17:29:02.838Z,50.70
2022-09-23T17:31:30.731Z,51.30
2022-09-23T17:34:01.966Z,51.30
2022-09-23T17:36:29.266Z,51.90
2022-09-23T17:38:56.273Z,52.50
2022-09-23T17:41:23.530Z,52.60
2022-09-23T17:43:53.995Z,53.20
2022-09-23T17:46:21.401Z,53.00
2022-09-23T17:48:48.779Z,53.20
2022-09-23T17:51:20.227Z,53.40
2022-09-23T17:53:47.600Z,53.60
2022-09-23T17:56:18.362Z,53.50
2022-09-23T17:58:46.633Z,53.80
2022-09-23T18:01:16.154Z,54.20
2022-09-23T18:03:46.086Z,54.50
2022-09-23T18:06:16.873Z,54.60
2022-09-23T18:08:44.220Z,54.60
2022-09-23T18:11:27.969Z,55.00
2022-09-23T18:13:59.177Z,55.20
2022-09-23T18:16:27.828Z,55.60
2022-09-23T18:18:59.988Z,55.50
2022-09-23T18:21:28.550Z,55.60
2022-09-23T18:24:06.547Z,55.80
2022-09-23T18:26:43.333Z,56.50
2022-09-23T18:29:10.460Z,57.30
2022-09-23T18:31:38.279Z,57.60
2022-09-23T18:34:09.082Z,57.90
2022-09-23T18:36:36.424Z,57.80
2022-09-23T18:39:03.490Z,57.50
2022-09-23T18:41:30.696Z,57.60
2022-09-23T18:43:57.648Z,57.30
2022-09-23T18:46:25.539Z,57.60
2022-09-23T18:49:11.560Z,57.80
2022-09-23T18:51:39.424Z,57.80
2022-09-23T18:54:07.208Z,57.80
2022-09-23T18:56:39.897Z,58.10
2022-09-23T18:59:07.180Z,58.10
2022-09-23T19:01:34.328Z,58.40
2022-09-23T19:04:04.556Z,58.70
2022-09-23T19:06:33.416Z,59.10
2022-09-23T19:09:03.402Z,59.00
2022-09-23T19:11:30.452Z,59.10
2022-09-23T19:13:58.352Z,59.00
2022-09-23T19:16:25.938Z,59.00
2022-09-23T19:18:53.108Z,59.20
2022-09-23T19:21:21.928Z,59.30
2022-09-23T19:23:49.683Z,59.30
2022-09-23T19:26:17.545Z,59.10
2022-09-23T19:28:51.394Z,59.30
2022-09-23T19:31:20.365Z,59.50
2022-09-23T19:33:56.898Z,59.50
2022-09-23T19:36:33.494Z,59.60
2022-09-23T19:39:03.267Z,59.60
2022-09-23T19:41:32.464Z,59.60
2022-09-23T19:44:02.553Z,59.70
2022-09-23T19:46:31.186Z,60.10
2022-09-23T19:48:58.611Z,60.20
2022-09-23T19:51:25.543Z,60.10
2022-09-23T19:53:52.745Z,60.20
2022-09-23T19:56:20.290Z,60.30
2022-09-23T19:58:55.736Z,60.60
2022-09-23T20:01:23.139Z,60.80
2022-09-23T20:03:51.358Z,60.90
2022-09-23T20:06:18.807Z,61.00
2022-09-23T20:08:45.899Z,60.80
2022-09-23T20:11:17.545Z,60.80
2022-09-23T20:13:48.004Z,60.80
2022-09-23T20:16:15.621Z,60.90
2022-09-23T20:18:43.136Z,61.00
2022-09-23T20:21:11.314Z,61.10
2022-09-23T20:23:38.280Z,61.10
2022-09-23T20:26:24.438Z,61.20
2022-09-23T20:28:51.299Z,61.20
2022-09-23T20:31:18.420Z,61.30
2022-09-23T20:33:46.350Z,61.40
2022-09-23T20:36:13.724Z,61.50
2022-09-23T20:38:40.810Z,61.70
2022-09-23T20:41:08.399Z,61.70
2022-09-23T20:43:35.240Z,61.60
2022-09-23T20:46:02.666Z,61.60
2022-09-23T20:48:29.889Z,61.70
2022-09-23T20:51:03.538Z,61.90
2022-09-23T20:53:32.174Z,61.80
2022-09-23T20:55:59.575Z,61.90
2022-09-23T20:58:32.264Z,62.10
2022-09-23T21:01:11.540Z,62.00
2022-09-23T21:03:39.774Z,62.20
2022-09-23T21:06:07.116Z,62.20
2022-09-23T21:08:34.417Z,62.20
2022-09-23T21:11:03.850Z,62.40
2022-09-23T21:13:31.372Z,62.30
2022-09-23T21:16:04.908Z,62.50
2022-09-23T21:18:32.084Z,62.60
2022-09-23T21:21:02.411Z,62.80
2022-09-23T21:23:38.173Z,62.70
2022-09-23T21:26:10.171Z,62.60
2022-09-23T21:28:37.821Z,62.80
2022-09-23T21:31:05.984Z,62.80
2022-09-23T21:33:33.213Z,62.90
2022-09-23T21:36:03.862Z,62.90
2022-09-23T21:38:31.081Z,63.00
2022-09-23T21:40:58.749Z,63.00
2022-09-23T21:43:26.362Z,63.30
2022-09-23T21:45:59.950Z,63.60
2022-09-23T21:48:28.163Z,64.00
2022-09-23T21:50:56.008Z,64.10
2022-09-23T21:53:23.945Z,64.30
2022-09-23T21:55:50.869Z,64.40
2022-09-23T21:58:17.763Z,64.40
2022-09-23T22:00:48.030Z,64.40
2022-09-23T22:03:14.983Z,64.60
2022-09-23T22:05:44.151Z,64.80
2022-09-23T22:08:11.038Z,65.70
2022-09-23T22:10:38.228Z,65.40
2022-09-23T22:13:12.562Z,65.70
2022-09-23T22:15:39.964Z,66.10
2022-09-23T22:18:06.988Z,66.10
2022-09-23T22:20:34.590Z,65.80
2022-09-23T22:23:02.012Z,65.50
2022-09-23T22:25:29.131Z,65.20
2022-09-23T22:28:14.683Z,65.20
2022-09-23T22:31:00.367Z,65.20
2022-09-23T22:33:27.278Z,65.30
2022-09-23T22:36:01.484Z,65.30
2022-09-23T22:38:31.785Z,65.30
2022-09-23T22:41:00.083Z,65.30
2022-09-23T22:43:27.440Z,65.10
2022-09-23T22:45:54.399Z,65.10
2022-09-23T22:48:21.308Z,65.30
2022-09-23T22:50:48.675Z,65.30
2022-09-23T22:53:15.703Z,65.10
2022-09-23T22:55:43.099Z,65.50
2022-09-23T22:58:31.051Z,66.10
2022-09-23T23:00:58.292Z,66.60
2022-09-23T23:03:26.870Z,66.60
2022-09-23T23:05:57.695Z,66.60
2022-09-23T23:08:31.020Z,66.70
2022-09-23T23:10:59.194Z,66.60
2022-09-23T23:13:31.871Z,66.20
2022-09-23T23:16:03.991Z,66.10
2022-09-23T23:18:31.950Z,65.90
2022-09-23T23:21:06.545Z,65.80
2022-09-23T23:23:36.040Z,65.60
2022-09-23T23:26:12.875Z,65.90
2022-09-23T23:28:40.085Z,65.90
2022-09-23T23:31:07.722Z,65.80
2022-09-23T23:33:34.890Z,65.90
2022-09-23T23:36:04.234Z,65.90
2022-09-23T23:38:31.171Z,65.80
2022-09-23T23:41:01.610Z,65.80
2022-09-23T23:43:39.177Z,65.90
2022-09-23T23:46:08.530Z,66.00
2022-09-23T23:48:35.691Z,66.20
2022-09-23T23:51:03.081Z,66.40
2022-09-23T23:53:30.815Z,66.20
2022-09-23T23:55:58.070Z,66.20
2022-09-23T23:58:25.327Z,66.10
